Westview, KY (40178)

11:17 PM CST on February 12, 2016 (GMT -0600)
Eveleigh Road | | Change Station
CLOSE
Current Station
Personal Weather Station
Location: Leitchfield, KY
Elevation: 670 ft
Nearby Weather Stations

Elev 670 ft 37.58 °N, 86.34 °W | Updated 6 seconds ago

Mostly Cloudy
Mostly Cloudy
24.6 °F
Feels Like 13 °F
N
12.1
Wind Variable Wind from North
Gusts 14.5 mph

Today
High -- | Low -- °F
--% Chance of Precip.
Yesterday
High -- | Low -- °F
Precip. -- in
Pressure 30.33 in
Visibility 10.0 miles
Clouds Few 3400 ft
Overcast 4600 ft
Windchill 13 °F
Dew Point 17 °F
Humidity 73%
Rainfall in
Snow Depth Not available.
6:38 AM 5:21 PM
Waxing Crescent, 27% visible
SPECI KFTK 130504Z AUTO 29009G20KT 10SM FEW034 OVC046 M04/M12 A3033 RMK AO2 SNE04
Pressure 30.33 in
Visibility 10.0 miles
Clouds Few 3400 ft
Overcast 4600 ft
Windchill 13 °F
Dew Point 17 °F
Humidity 73%
Rainfall in
Snow Depth Not available.
6:38 AM 5:21 PM
Waxing Crescent, 27% visible
SPECI KFTK 130504Z AUTO 29009G20KT 10SM FEW034 OVC046 M04/M12 A3033 RMK AO2 SNE04

10-Day Weather Forecast

Almanac

Astronomy

Feb. 12, 2016 Rise Set
Actual Time
Civil Twilight
Nautical Twilight
Astronomical Twilight
Moon
Length of Visible Light
Length of Day
Tomorrow will be .
, % of the Moon is Illuminated

Today's Extremes

State Highs State Lows

Community

WunderPhotos

Upload Photos

1,892,500 photos uploaded!

WunderBlog® & News

Nearby

Air Quality

  Air Quality AQ Index Pollutant
Not available.

Snow Depth

Station Depth Elevation

Earthquake Activity

City Distance Mag. Time & Date
Minimum magnitude displayed is 2.5.

Coastal Water Temperatures

Place Temperature

Stations

Nearby Weather Stations

Station Location Temp. Windchill Dew Point Humidity Wind Precip. Elev Updated Type
                   

Watches & Warnings

There are currently no watches in effect.